Time;durP1;ratioP1;P1;durP2;ratioP2;P2;SDS_P1;SDS_P2;PMS_P1;PMS_P2;Temp;Humidity;BMP_temperature;BMP_pressure;BME280_temperature;BME280_humidity;BME280_pressure;Samples;Min_cycle;Max_cycle;Signal;HPM_P1;HPM_P2
2021/09/08 00:02:32;;;;;;;19.60;10.43;;;;;;;14.72;62.64;100318.03;10402366;28;20457;-81
2021/09/08 00:07:37;;;;;;;17.63;10.57;;;;;;;14.80;62.75;100330.69;10386681;28;20061;-80
2021/09/08 00:12:40;;;;;;;12.05;9.98;;;;;;;14.85;62.51;100323.28;10384769;28;20483;-81
2021/09/08 00:17:43;;;;;;;13.07;10.25;;;;;;;14.77;62.57;100322.97;10404110;28;20091;-81
2021/09/08 00:22:46;;;;;;;16.38;10.18;;;;;;;14.75;62.73;100324.88;10401499;28;20507;-80
2021/09/08 00:27:49;;;;;;;16.15;10.35;;;;;;;14.71;62.39;100315.50;10401082;28;20057;-80
2021/09/08 00:32:50;;;;;;;14.77;10.52;;;;;;;14.73;62.39;100316.25;10402236;28;20111;-81
2021/09/08 00:37:52;;;;;;;17.65;11.25;;;;;;;14.62;62.63;100309.09;10404024;28;20115;-80
2021/09/08 00:42:55;;;;;;;19.85;13.05;;;;;;;14.44;62.23;100297.19;10400052;28;20060;-80
2021/09/08 00:47:58;;;;;;;16.85;10.98;;;;;;;14.30;63.13;100297.31;10400444;28;20053;-80
2021/09/08 00:53:02;;;;;;;23.08;10.38;;;;;;;14.40;63.14;100303.63;10401506;28;20049;-80
2021/09/08 00:58:04;;;;;;;16.73;11.73;;;;;;;14.35;62.70;100306.56;10400672;28;20073;-80
2021/09/08 01:03:06;;;;;;;15.10;10.07;;;;;;;14.35;62.96;100305.75;10402630;28;20519;-80
2021/09/08 01:08:09;;;;;;;16.25;11.80;;;;;;;14.09;62.73;100298.78;10410042;28;20143;-80
2021/09/08 01:13:11;;;;;;;20.95;12.18;;;;;;;13.98;63.40;100298.69;10432387;28;20053;-80
2021/09/08 01:18:14;;;;;;;17.00;10.93;;;;;;;14.00;63.43;100297.66;10401505;28;20576;-80
2021/09/08 01:23:16;;;;;;;14.23;10.50;;;;;;;14.05;63.19;100292.06;10399605;28;20064;-80
2021/09/08 01:28:18;;;;;;;15.75;12.57;;;;;;;13.85;63.57;100292.56;10400654;28;20142;-80
2021/09/08 01:33:20;;;;;;;16.70;11.60;;;;;;;13.83;63.92;100287.41;10400497;28;20057;-80
2021/09/08 01:38:21;;;;;;;14.88;10.98;;;;;;;13.90;63.74;100283.44;10400511;28;20115;-80
2021/09/08 01:43:25;;;;;;;20.15;13.07;;;;;;;13.75;63.82;100279.22;10398583;28;20799;-80
2021/09/08 01:48:28;;;;;;;14.85;11.63;;;;;;;13.68;64.19;100281.41;10399028;28;20954;-80
2021/09/08 01:53:31;;;;;;;18.50;11.93;;;;;;;13.70;63.76;100270.78;10382813;28;20069;-80
2021/09/08 01:58:34;;;;;;;14.68;10.70;;;;;;;13.66;63.70;100264.03;10397878;28;20466;-80
2021/09/08 02:03:36;;;;;;;15.18;10.50;;;;;;;13.81;63.60;100260.41;10401108;28;20085;-81
2021/09/08 02:08:38;;;;;;;17.63;12.30;;;;;;;13.69;63.48;100267.34;10401900;28;20890;-80
2021/09/08 02:13:41;;;;;;;16.58;10.43;;;;;;;13.59;63.99;100257.53;10403370;28;20054;-80
2021/09/08 02:18:44;;;;;;;15.68;10.23;;;;;;;13.65;63.88;100262.38;10403464;28;20053;-81
2021/09/08 02:23:47;;;;;;;14.00;10.80;;;;;;;13.74;63.74;100269.63;10402835;28;20088;-80
2021/09/08 02:28:49;;;;;;;14.20;10.30;;;;;;;13.78;63.36;100263.22;10402874;28;20056;-81
2021/09/08 02:33:51;;;;;;;15.07;11.13;;;;;;;13.75;62.97;100252.91;10408031;28;20570;-80
2021/09/08 02:38:54;;;;;;;27.95;16.58;;;;;;;13.30;63.94;100250.69;10401898;28;20072;-80
2021/09/08 02:43:56;;;;;;;24.67;15.30;;;;;;;13.07;64.53;100248.75;10403365;28;20058;-80
2021/09/08 02:48:58;;;;;;;19.55;12.93;;;;;;;13.20;64.42;100242.59;10402720;28;20049;-81
2021/09/08 02:54:01;;;;;;;17.30;11.48;;;;;;;13.19;64.53;100243.50;10401497;28;20061;-80
2021/09/08 02:59:04;;;;;;;22.73;14.27;;;;;;;13.18;63.98;100241.84;10402090;28;20172;-81
2021/09/08 03:04:06;;;;;;;17.33;13.15;;;;;;;13.03;64.60;100242.00;10383131;28;20160;-80
2021/09/08 03:09:08;;;;;;;19.00;13.38;;;;;;;12.89;64.89;100230.59;10398763;28;20061;-80
2021/09/08 03:14:10;;;;;;;16.52;11.43;;;;;;;12.93;64.93;100229.47;10395294;28;20115;-80
2021/09/08 03:19:13;;;;;;;15.73;12.07;;;;;;;13.01;64.41;100231.59;10396043;28;20102;-80
2021/09/08 03:24:15;;;;;;;15.70;10.98;;;;;;;13.11;64.40;100226.59;10400247;28;20069;-80
2021/09/08 03:29:17;;;;;;;13.32;10.50;;;;;;;13.18;64.01;100235.75;10405298;28;20049;-81
2021/09/08 03:34:19;;;;;;;17.50;12.10;;;;;;;13.14;63.91;100229.84;10404899;28;20053;-80
2021/09/08 03:39:21;;;;;;;15.23;10.90;;;;;;;13.03;63.87;100231.50;10411885;28;20089;-80
2021/09/08 03:44:24;;;;;;;16.88;10.60;;;;;;;13.07;64.32;100230.38;10427150;28;20069;-80
2021/09/08 03:49:45;;;;;;;17.08;9.93;;;;;;;13.09;64.20;100221.44;10412780;28;20088;-80
2021/09/08 03:54:48;;;;;;;20.92;11.57;;;;;;;13.00;63.89;100227.28;10403825;28;20108;-80
2021/09/08 03:59:50;;;;;;;17.67;13.32;;;;;;;12.74;64.46;100228.13;10403756;28;20099;-80
2021/09/08 04:04:52;;;;;;;15.30;11.55;;;;;;;12.70;64.56;100218.78;10402715;28;20088;-80
2021/09/08 04:09:54;;;;;;;17.52;11.55;;;;;;;12.75;64.40;100222.78;10404335;28;20049;-80
2021/09/08 04:14:59;;;;;;;15.65;11.23;;;;;;;12.58;64.44;100220.38;10404152;28;20656;-80
2021/09/08 04:20:01;;;;;;;16.67;10.30;;;;;;;12.55;64.78;100217.09;10403514;28;20049;-80
2021/09/08 04:25:06;;;;;;;16.77;11.02;;;;;;;12.65;64.49;100218.22;10401832;28;20049;-80
2021/09/08 04:30:11;;;;;;;14.52;10.23;;;;;;;12.70;64.37;100216.16;10402877;28;20563;-80
2021/09/08 04:35:15;;;;;;;15.75;11.02;;;;;;;12.66;64.16;100218.09;10402615;28;20087;-80
2021/09/08 04:40:18;;;;;;;14.77;11.18;;;;;;;12.54;64.11;100215.41;10403449;28;20054;-80
2021/09/08 04:45:24;;;;;;;20.67;11.57;;;;;;;12.24;64.61;100218.16;10403869;28;20148;-80
2021/09/08 04:50:30;;;;;;;16.50;11.80;;;;;;;12.30;64.65;100225.66;10388328;28;20057;-80
2021/09/08 04:55:34;;;;;;;16.38;10.35;;;;;;;12.28;64.94;100217.06;10401436;28;20419;-81
2021/09/08 05:00:36;;;;;;;15.38;10.20;;;;;;;12.42;64.85;100222.28;10385580;28;20817;-80
2021/09/08 05:05:39;;;;;;;16.10;11.30;;;;;;;12.48;64.61;100224.50;10401873;28;20057;-81
2021/09/08 05:10:43;;;;;;;18.25;10.55;;;;;;;12.45;64.30;100229.13;10402533;28;20054;-80
2021/09/08 05:15:48;;;;;;;18.60;10.15;;;;;;;12.48;64.33;100214.03;10385678;28;20952;-80
2021/09/08 05:20:50;;;;;;;17.20;11.52;;;;;;;12.63;63.84;100217.47;10415763;28;20080;-81
2021/09/08 05:25:52;;;;;;;23.55;10.98;;;;;;;12.66;63.75;100219.91;10404126;28;20084;-80
2021/09/08 05:30:54;;;;;;;12.52;7.00;;;;;;;12.64;63.80;100222.59;10402639;28;20054;-80
2021/09/08 05:35:59;;;;;;;15.18;7.43;;;;;;;12.70;63.87;100216.97;10402768;28;20087;-81
2021/09/08 05:41:05;;;;;;;11.10;7.03;;;;;;;12.87;63.57;100215.88;10401206;28;20392;-81
2021/09/08 05:46:08;;;;;;;8.38;5.78;;;;;;;13.01;63.48;100218.47;10397749;28;20484;-81
2021/09/08 05:51:11;;;;;;;11.82;5.85;;;;;;;13.21;63.10;100217.19;10399490;28;20091;-81
2021/09/08 05:56:13;;;;;;;11.43;5.85;;;;;;;13.24;62.92;100216.94;10400526;28;20076;-81
2021/09/08 06:01:15;;;;;;;11.65;5.82;;;;;;;13.29;62.83;100213.06;10399310;28;20065;-82
2021/09/08 06:06:19;;;;;;;9.77;6.00;;;;;;;13.41;62.78;100222.75;10400116;28;20072;-81
2021/09/08 06:11:22;;;;;;;20.25;7.53;;;;;;;13.51;62.64;100215.16;10402471;28;20058;-81
2021/09/08 06:16:25;;;;;;;11.38;6.80;;;;;;;13.70;62.52;100219.06;10413263;28;20131;-81
2021/09/08 06:21:26;;;;;;;11.65;6.35;;;;;;;13.87;62.36;100215.28;10400095;28;20115;-82
2021/09/08 06:26:28;;;;;;;12.35;5.78;;;;;;;13.96;62.32;100219.06;10398358;28;20144;-81
2021/09/08 06:31:37;;;;;;;10.60;6.20;;;;;;;14.07;62.27;100213.88;10399007;28;20162;-81
2021/09/08 06:36:43;;;;;;;9.95;6.22;;;;;;;14.25;62.13;100207.34;10382114;28;20053;-81
2021/09/08 06:41:44;;;;;;;14.60;7.40;;;;;;;14.48;61.93;100210.03;10399771;28;20089;-81
2021/09/08 06:46:46;;;;;;;16.75;6.88;;;;;;;14.66;61.97;100201.78;10399751;28;20061;-80
2021/09/08 06:52:01;;;;;;;11.00;6.95;;;;;;;14.82;61.76;100199.75;10399680;28;20068;-81
2021/09/08 06:57:12;;;;;;;13.45;6.72;;;;;;;15.02;61.51;100193.88;10396918;28;20061;-81
2021/09/08 07:02:18;;;;;;;11.45;6.95;;;;;;;15.10;61.47;100194.13;10397166;28;20049;-80
2021/09/08 07:07:24;;;;;;;10.20;6.75;;;;;;;15.20;61.77;100192.50;10398313;28;20069;-81
2021/09/08 07:12:28;;;;;;;16.92;7.53;;;;;;;15.41;61.27;100188.22;10395178;28;20069;-80
2021/09/08 07:17:30;;;;;;;13.35;8.35;;;;;;;15.62;60.82;100178.72;10396449;28;20061;-80
2021/09/08 07:22:34;;;;;;;12.15;7.35;;;;;;;15.88;60.34;100181.97;10397512;28;20059;-81
2021/09/08 07:27:40;;;;;;;12.02;7.55;;;;;;;16.06;59.76;100176.13;10395704;28;20069;-81
2021/09/08 07:32:42;;;;;;;12.82;7.70;;;;;;;16.17;59.82;100178.75;10390969;28;20052;-81
2021/09/08 07:37:44;;;;;;;13.68;8.20;;;;;;;16.56;59.38;100174.78;10394532;28;20448;-81
2021/09/08 07:42:47;;;;;;;15.70;8.55;;;;;;;17.25;57.77;100173.44;10397306;28;20503;-81
2021/09/08 07:47:49;;;;;;;16.42;8.48;;;;;;;17.96;56.41;100167.34;10397911;28;20089;-81
2021/09/08 07:52:51;;;;;;;14.85;7.97;;;;;;;18.45;55.18;100169.22;10395784;28;20059;-81
2021/09/08 07:57:55;;;;;;;15.45;8.30;;;;;;;18.83;53.85;100161.31;10394031;28;20081;-81
2021/09/08 08:02:57;;;;;;;13.98;8.93;;;;;;;18.92;53.08;100157.84;10392207;28;20125;-81
2021/09/08 08:08:01;;;;;;;17.33;8.73;;;;;;;19.17;52.87;100152.03;10393705;28;20057;-81
2021/09/08 08:13:10;;;;;;;18.98;9.15;;;;;;;19.61;51.51;100155.84;10402013;28;20061;-81
2021/09/08 08:18:13;;;;;;;14.45;8.43;;;;;;;20.07;50.80;100147.88;10401095;28;20057;-80
2021/09/08 08:23:15;;;;;;;15.65;8.65;;;;;;;20.40;50.00;100145.66;10400898;28;20112;-81
2021/09/08 08:29:07;;;;;;;17.38;9.90;;;;;;;20.60;48.50;100133.94;10400147;28;20050;-81
2021/09/08 08:34:10;;;;;;;16.52;9.15;;;;;;;21.21;48.71;100134.00;10400889;28;20179;-81
2021/09/08 08:39:16;;;;;;;16.23;9.27;;;;;;;21.42;47.52;100127.34;10401406;28;20057;-81
2021/09/08 08:44:23;;;;;;;12.90;9.10;;;;;;;21.37;47.71;100128.81;10416745;28;20052;-81
2021/09/08 08:55:59;;;;;;;11.88;7.88;;;;;;;21.68;45.88;100117.53;10410456;28;20045;-81
2021/09/08 09:01:31;;;;;;;14.63;8.88;;;;;;;21.95;46.05;100103.19;10399890;28;20142;-81
2021/09/08 09:19:37;;;;;;;;;;;;;;;22.41;45.60;100081.38;10400677;28;20781;-81
2021/09/08 09:24:40;;;;;;;13.32;8.20;;;;;;;22.99;44.80;100075.13;10400006;28;20016;-80
2021/09/08 09:29:43;;;;;;;14.27;8.02;;;;;;;22.77;44.86;100076.66;10398158;28;20111;-82
2021/09/08 09:34:47;;;;;;;18.70;7.80;;;;;;;22.89;44.68;100075.31;10394122;28;20080;-82
2021/09/08 09:39:51;;;;;;;11.45;7.30;;;;;;;23.33;44.08;100063.25;10396399;28;20064;-81
2021/09/08 09:45:00;;;;;;;12.73;7.85;;;;;;;23.28;43.88;100064.78;10395350;28;20061;-82
2021/09/08 09:50:08;;;;;;;11.00;7.60;;;;;;;23.76;43.01;100064.66;10396798;28;20053;-82
2021/09/08 09:55:11;;;;;;;12.18;7.47;;;;;;;23.86;43.56;100051.94;10393237;28;20076;-82
2021/09/08 10:00:15;;;;;;;14.15;7.47;;;;;;;24.00;42.60;100043.19;10390779;28;20445;-82
2021/09/08 10:05:19;;;;;;;14.15;7.72;;;;;;;24.05;42.95;100022.13;10393193;28;20107;-82
2021/09/08 10:10:35;;;;;;;13.93;7.80;;;;;;;23.87;42.70;100015.38;10394295;28;20049;-82
2021/09/08 10:15:37;;;;;;;15.20;7.28;;;;;;;24.31;43.00;100004.97;10396216;28;20069;-82
2021/09/08 10:20:51;;;;;;;15.20;7.50;;;;;;;24.50;42.02;100002.63;10395384;28;20053;-82
2021/09/08 10:25:56;;;;;;;13.63;7.68;;;;;;;24.39;42.16;99995.03;10394998;28;20058;-82
2021/09/08 10:31:01;;;;;;;11.02;7.80;;;;;;;24.59;42.15;99982.03;10396781;28;20084;-82
2021/09/08 10:36:04;;;;;;;10.35;7.20;;;;;;;25.01;42.07;99974.28;10393316;28;20506;-82
2021/09/08 10:41:09;;;;;;;13.55;7.40;;;;;;;24.97;41.14;99965.81;10394328;28;20150;-82
2021/09/08 10:46:18;;;;;;;10.43;6.60;;;;;;;24.68;41.65;99959.53;10394375;28;20111;-82
2021/09/08 10:51:37;;;;;;;10.60;7.53;;;;;;;24.62;40.98;99952.22;10394921;28;20500;-83
2021/09/08 10:56:43;;;;;;;12.13;7.22;;;;;;;24.63;41.44;99933.34;10393429;28;20053;-81
2021/09/08 11:01:46;;;;;;;9.13;6.25;;;;;;;24.85;40.00;99929.81;10393169;28;20054;-82
2021/09/08 11:06:54;;;;;;;13.23;6.88;;;;;;;24.85;39.99;99908.41;10395376;28;20057;-83
2021/09/08 11:12:03;;;;;;;12.05;6.85;;;;;;;24.69;40.17;99902.38;10393394;28;20061;-82
2021/09/08 11:17:22;;;;;;;12.18;6.43;;;;;;;24.81;39.20;99891.06;10396967;28;20061;-82
2021/09/08 11:22:24;;;;;;;12.27;6.50;;;;;;;24.98;41.35;99907.75;10397768;28;20143;-82
2021/09/08 11:27:30;;;;;;;10.27;6.35;;;;;;;25.22;37.75;99894.09;10404111;28;20123;-82
2021/09/08 11:33:09;;;;;;;7.43;4.82;;;;;;;25.40;34.50;99891.03;10407993;28;20076;-82
2021/09/08 11:38:14;;;;;;;5.72;4.30;;;;;;;25.36;32.64;99882.56;10398619;28;20931;-82
2021/09/08 11:43:39;;;;;;;9.10;5.05;;;;;;;25.50;33.17;99887.06;10396118;28;20053;-82
2021/09/08 11:48:43;;;;;;;7.72;4.32;;;;;;;25.77;32.85;99893.53;10404187;28;20553;-82
2021/09/08 11:53:49;;;;;;;8.75;4.97;;;;;;;25.96;32.61;99876.84;10401039;28;20575;-82
2021/09/08 11:58:55;;;;;;;9.38;4.53;;;;;;;25.95;31.86;99875.19;10400094;28;20151;-82
2021/09/08 12:04:01;;;;;;;6.60;4.72;;;;;;;26.00;31.67;99871.97;10400927;28;20167;-82
2021/09/08 12:09:11;;;;;;;7.75;4.40;;;;;;;25.89;30.39;99866.03;10401622;28;20119;-82
2021/09/08 12:14:23;;;;;;;6.55;4.22;;;;;;;25.98;29.15;99868.66;10400787;28;20147;-82
2021/09/08 12:19:41;;;;;;;6.78;4.38;;;;;;;26.00;30.18;99856.69;10401257;28;20123;-82
2021/09/08 12:24:49;;;;;;;6.93;4.30;;;;;;;26.26;30.19;99840.81;10398243;28;20211;-82
2021/09/08 12:30:04;;;;;;;9.68;4.00;;;;;;;26.22;29.61;99838.75;10399423;28;20057;-83
2021/09/08 12:35:07;;;;;;;5.72;4.10;;;;;;;26.41;30.58;99827.31;10399549;28;20571;-82
2021/09/08 12:40:13;;;;;;;8.65;4.40;;;;;;;26.51;30.90;99809.84;10397200;28;21002;-83
2021/09/08 12:45:25;;;;;;;7.28;4.25;;;;;;;26.54;30.44;99806.81;10399984;28;20049;-82
2021/09/08 12:50:28;;;;;;;16.73;4.65;;;;;;;26.68;31.20;99805.03;10395717;28;20717;-82
2021/09/08 12:55:38;;;;;;;6.93;4.45;;;;;;;26.65;29.67;99790.16;10396922;28;20129;-83
2021/09/08 13:00:41;;;;;;;8.70;4.40;;;;;;;26.50;31.38;99786.75;10396765;28;20053;-82
2021/09/08 13:05:48;;;;;;;6.28;4.13;;;;;;;26.72;31.16;99784.84;10397531;28;20053;-82
2021/09/08 13:10:51;;;;;;;8.38;4.38;;;;;;;26.83;30.18;99778.91;10397962;28;20430;-82
2021/09/08 13:15:54;;;;;;;7.10;4.28;;;;;;;26.82;29.50;99779.94;10398179;28;20124;-82
2021/09/08 13:21:03;;;;;;;7.32;4.50;;;;;;;26.81;29.28;99772.94;10396205;28;20522;-82
2021/09/08 13:26:11;;;;;;;5.65;4.07;;;;;;;26.84;29.59;99761.78;10411856;28;20151;-82
2021/09/08 13:31:24;;;;;;;9.75;4.28;;;;;;;26.81;27.46;99772.94;10409978;28;20132;-82
2021/09/08 13:36:26;;;;;;;6.85;4.25;;;;;;;26.83;29.59;99761.97;10394786;28;20112;-82
2021/09/08 13:41:32;;;;;;;6.70;4.40;;;;;;;26.84;29.12;99748.34;10392798;28;20080;-82
2021/09/08 13:46:40;;;;;;;8.38;4.80;;;;;;;26.80;29.86;99746.25;10395115;28;20084;-82
2021/09/08 13:51:49;;;;;;;9.50;4.50;;;;;;;26.55;29.97;99743.22;10396224;28;20054;-82
2021/09/08 13:56:52;;;;;;;7.47;4.32;;;;;;;26.61;30.99;99737.94;10397852;28;20076;-82
2021/09/08 14:01:56;;;;;;;6.53;4.20;;;;;;;26.63;30.23;99735.03;10405488;28;20111;-82
2021/09/08 14:07:20;;;;;;;7.70;4.57;;;;;;;26.57;29.91;99722.44;10395583;28;20499;-83
2021/09/08 14:12:26;;;;;;;6.88;5.03;;;;;;;26.60;29.30;99719.38;10397371;28;20132;-82
2021/09/08 14:17:29;;;;;;;8.63;5.05;;;;;;;26.57;31.23;99717.91;10395356;28;20111;-82
2021/09/08 14:22:31;;;;;;;8.80;4.75;;;;;;;26.48;30.04;99715.56;10394995;28;20680;-82
2021/09/08 14:27:34;;;;;;;8.68;4.85;;;;;;;26.45;30.36;99707.91;10395877;28;20124;-82
2021/09/08 14:32:37;;;;;;;9.10;5.15;;;;;;;26.54;30.47;99698.66;10393235;28;20492;-82
2021/09/08 14:37:40;;;;;;;8.10;5.03;;;;;;;26.72;31.41;99701.66;10393696;28;20604;-82
2021/09/08 14:42:46;;;;;;;6.85;4.15;;;;;;;26.77;30.63;99693.84;10391959;28;20084;-82
2021/09/08 14:47:48;;;;;;;9.02;4.55;;;;;;;26.59;30.31;99672.94;10394430;28;20935;-82
2021/09/08 14:52:50;;;;;;;8.27;4.82;;;;;;;26.40;29.99;99687.06;10394868;28;20057;-82
2021/09/08 14:57:59;;;;;;;26.80;5.57;;;;;;;26.42;30.41;99668.09;10395164;28;20147;-82
2021/09/08 15:03:02;;;;;;;7.35;4.50;;;;;;;26.44;31.37;99669.53;10393637;28;20099;-82
2021/09/08 15:08:07;;;;;;;6.72;4.60;;;;;;;26.49;30.89;99664.41;10393376;28;20056;-81
2021/09/08 15:13:11;;;;;;;6.07;4.32;;;;;;;26.53;30.28;99664.81;10393406;28;20166;-81
2021/09/08 15:18:16;;;;;;;6.90;4.80;;;;;;;26.50;30.41;99667.91;10394435;28;20136;-81
2021/09/08 15:23:18;;;;;;;13.20;5.20;;;;;;;26.43;31.17;99654.47;10405196;28;20694;-80
2021/09/08 15:28:23;;;;;;;7.15;5.32;;;;;;;26.47;30.51;99647.69;10402808;28;20097;-81
2021/09/08 15:33:25;;;;;;;7.65;4.60;;;;;;;26.56;30.55;99648.38;10401248;28;20127;-81
2021/09/08 15:38:27;;;;;;;10.02;4.90;;;;;;;26.57;30.96;99642.78;10405217;28;20107;-81
2021/09/08 15:43:34;;;;;;;9.40;6.18;;;;;;;26.57;31.11;99641.97;10401796;28;20061;-81
2021/09/08 15:48:36;;;;;;;7.57;5.53;;;;;;;26.40;31.63;99640.63;10404293;28;20511;-81
2021/09/08 15:53:38;;;;;;;8.65;5.65;;;;;;;26.16;31.10;99633.91;10402180;28;20084;-81
2021/09/08 15:58:40;;;;;;;7.20;5.25;;;;;;;26.08;31.39;99626.03;10404946;28;20061;-81
2021/09/08 16:03:42;;;;;;;9.93;5.82;;;;;;;26.01;31.70;99624.38;10404740;28;20085;-81
2021/09/08 16:08:50;;;;;;;12.27;5.90;;;;;;;26.00;31.63;99620.03;10405398;28;20166;-81
2021/09/08 16:13:51;;;;;;;7.50;5.57;;;;;;;25.86;32.04;99611.88;10404921;28;20053;-81
2021/09/08 16:19:02;;;;;;;9.52;6.13;;;;;;;25.74;31.90;99605.41;10405404;28;20089;-81
2021/09/08 16:24:04;;;;;;;7.47;5.30;;;;;;;25.70;32.80;99604.16;10404848;28;20541;-78
2021/09/08 16:29:07;;;;;;;8.80;6.20;;;;;;;25.50;33.06;99602.38;10399343;28;20148;-77
2021/09/08 16:34:11;;;;;;;9.82;4.40;;;;;;;25.31;33.55;99608.34;10401205;28;20092;-81
2021/09/08 16:39:15;;;;;;;8.73;5.18;;;;;;;25.34;33.61;99602.66;10411261;28;20706;-81
2021/09/08 16:44:20;;;;;;;12.23;5.15;;;;;;;25.42;33.95;99597.16;10392771;28;20061;-81
2021/09/08 16:49:23;;;;;;;11.85;4.68;;;;;;;25.54;33.51;99607.16;10392582;28;20093;-81
2021/09/08 16:54:26;;;;;;;12.70;5.43;;;;;;;25.36;34.25;99597.94;10395082;28;20056;-81
2021/09/08 16:59:33;;;;;;;7.75;4.78;;;;;;;25.20;34.49;99590.16;10386948;28;20140;-81
2021/09/08 17:04:35;;;;;;;8.27;4.38;;;;;;;24.92;34.79;99601.66;10393536;28;20064;-81
2021/09/08 17:09:38;;;;;;;7.18;4.47;;;;;;;24.74;35.33;99598.59;10394540;28;20061;-81
2021/09/08 17:14:41;;;;;;;7.60;4.45;;;;;;;24.48;35.68;99594.75;10394376;28;20104;-81
2021/09/08 17:19:43;;;;;;;9.27;4.90;;;;;;;24.25;35.86;99590.41;10389158;28;20092;-81
2021/09/08 17:24:46;;;;;;;9.82;5.03;;;;;;;24.01;36.73;99589.84;10396074;28;20088;-81
2021/09/08 17:29:48;;;;;;;7.43;4.53;;;;;;;23.74;37.04;99585.16;10394694;28;20049;-81
2021/09/08 17:34:50;;;;;;;11.52;5.18;;;;;;;23.50;37.32;99594.25;10391805;28;20577;-81
2021/09/08 17:40:11;;;;;;;6.93;4.22;;;;;;;23.27;37.77;99593.44;10392902;28;20143;-81
2021/09/08 17:45:17;;;;;;;10.60;4.47;;;;;;;23.07;38.28;99592.28;10387171;28;20136;-81
2021/09/08 17:50:23;;;;;;;8.93;6.38;;;;;;;23.01;38.37;99596.50;10394862;28;20115;-80
2021/09/08 17:55:27;;;;;;;12.18;6.40;;;;;;;22.89;39.91;99597.94;10395576;28;20685;-81
2021/09/08 18:00:31;;;;;;;10.90;6.50;;;;;;;22.66;40.73;99592.56;10396044;28;20127;-81
2021/09/08 18:05:34;;;;;;;18.73;6.28;;;;;;;22.44;41.13;99592.53;10395352;28;20132;-81
2021/09/08 18:10:35;;;;;;;10.23;6.13;;;;;;;22.26;41.34;99591.97;10395604;28;20058;-81
2021/09/08 18:15:39;;;;;;;11.23;6.53;;;;;;;22.07;41.93;99595.06;10396509;28;20057;-81
2021/09/08 18:20:41;;;;;;;12.82;6.70;;;;;;;21.88;42.77;99604.25;10394696;28;20115;-81
2021/09/08 18:25:43;;;;;;;9.15;6.97;;;;;;;21.68;43.41;99608.31;10394294;28;20057;-80
2021/09/08 18:30:47;;;;;;;13.27;7.15;;;;;;;21.50;44.21;99611.16;10394504;28;20152;-80
2021/09/08 18:35:49;;;;;;;14.52;7.00;;;;;;;21.31;44.27;99611.50;10395123;28;20061;-81
2021/09/08 18:40:53;;;;;;;9.95;6.57;;;;;;;21.04;45.27;99610.00;10393780;28;20115;-81
2021/09/08 18:45:56;;;;;;;11.35;7.20;;;;;;;20.84;45.43;99616.66;10392490;28;20107;-81
2021/09/08 18:50:58;;;;;;;11.90;7.45;;;;;;;20.55;46.45;99618.88;10394050;28;20089;-79
2021/09/08 18:56:00;;;;;;;13.27;6.65;;;;;;;20.55;46.86;99615.38;10392611;28;20486;-82
2021/09/08 19:01:04;;;;;;;12.93;7.47;;;;;;;20.46;47.13;99614.53;10395547;28;20057;-83
2021/09/08 19:06:07;;;;;;;10.32;7.10;;;;;;;20.27;47.43;99612.16;10396019;28;20496;-83
2021/09/08 19:11:09;;;;;;;9.90;7.70;;;;;;;20.02;48.36;99611.22;10406400;28;20049;-83
2021/09/08 19:16:10;;;;;;;9.32;7.10;;;;;;;19.96;48.76;99616.34;10413388;28;20049;-83
2021/09/08 19:21:12;;;;;;;10.98;7.40;;;;;;;19.78;49.11;99610.25;10392388;28;20099;-84
2021/09/08 19:26:27;;;;;;;10.52;7.80;;;;;;;19.60;49.46;99604.16;10395485;28;20057;-83
2021/09/08 19:31:29;;;;;;;11.40;7.65;;;;;;;19.53;49.99;99616.38;10392375;28;20093;-83
2021/09/08 19:36:34;;;;;;;9.88;7.72;;;;;;;19.41;50.59;99621.97;10389106;28;20140;-84
2021/09/08 19:41:36;;;;;;;11.90;8.50;;;;;;;19.27;51.55;99625.16;10392073;28;20081;-83
2021/09/08 19:46:38;;;;;;;12.23;8.60;;;;;;;18.92;52.19;99619.03;10391862;28;20115;-84
2021/09/08 19:51:40;;;;;;;11.38;8.40;;;;;;;18.57;52.75;99606.59;10392265;28;20049;-83
2021/09/08 19:56:42;;;;;;;11.35;8.20;;;;;;;18.41;53.10;99609.91;10390494;28;20717;-83
2021/09/08 20:01:44;;;;;;;12.77;8.15;;;;;;;18.45;53.00;99605.16;10391969;28;20089;-83
2021/09/08 20:06:46;;;;;;;11.45;8.07;;;;;;;18.47;53.39;99614.63;10396803;28;20112;-82
2021/09/08 20:11:48;;;;;;;11.90;8.27;;;;;;;18.35;53.43;99615.81;10399520;28;20457;-83
2021/09/08 20:16:51;;;;;;;12.73;7.72;;;;;;;17.98;54.29;99611.50;10407253;28;20057;-83
2021/09/08 20:21:53;;;;;;;13.50;8.88;;;;;;;17.94;54.20;99600.38;10399378;28;20049;-82
2021/09/08 20:26:56;;;;;;;13.85;8.05;;;;;;;17.90;54.53;99599.00;10399991;28;20470;-83
2021/09/08 20:31:59;;;;;;;11.02;8.48;;;;;;;17.95;54.68;99595.94;10399135;28;20463;-83
2021/09/08 20:37:02;;;;;;;12.82;8.25;;;;;;;17.75;55.04;99600.47;10399243;28;20057;-82
2021/09/08 20:42:04;;;;;;;13.73;9.02;;;;;;;17.56;55.85;99596.09;10397568;28;20099;-82
2021/09/08 20:47:06;;;;;;;13.77;9.38;;;;;;;17.51;55.91;99597.47;10398674;28;20057;-82
2021/09/08 20:52:09;;;;;;;15.63;9.10;;;;;;;17.47;56.20;99594.28;10399567;28;20058;-82
2021/09/08 20:57:12;;;;;;;15.95;8.40;;;;;;;17.41;56.13;99601.97;10399179;28;20458;-83
2021/09/08 21:02:15;;;;;;;14.10;9.20;;;;;;;17.44;56.25;99591.94;10381420;28;20050;-83
2021/09/08 21:07:18;;;;;;;14.60;8.75;;;;;;;17.36;56.57;99583.06;10399403;28;20116;-83
2021/09/08 21:12:20;;;;;;;13.00;9.30;;;;;;;17.28;56.93;99586.38;10395345;28;20435;-83
2021/09/08 21:17:22;;;;;;;14.80;9.57;;;;;;;16.97;56.93;99592.81;10395418;28;20107;-82
2021/09/08 21:22:24;;;;;;;11.73;9.60;;;;;;;16.66;57.51;99588.66;10396429;28;20061;-83
2021/09/08 21:27:26;;;;;;;11.20;8.48;;;;;;;16.77;57.68;99597.25;10397293;28;20085;-83
2021/09/08 21:32:31;;;;;;;14.93;9.27;;;;;;;16.77;57.70;99591.16;10397889;28;20585;-83
2021/09/08 21:37:33;;;;;;;11.90;9.20;;;;;;;16.64;58.11;99591.44;10385096;28;20450;-83
